Time,TemperatureF,DewpointF,PressureIn,WindDirection,WindDirectionDegrees,WindSpeedMPH,WindSpeedGustMPH,Humidity,HourlyPrecipIn,Conditions,Clouds,dailyrainin,SoftwareType,DateUTC
2013-04-24 00:41:00,44.0,38.0,30.07,SSE,157,1.0,1.0,79,0.00,,,0.00,TxWx,2013-04-24 04:41:00,
2013-04-24 00:47:00,44.0,38.0,30.07,SE,135,1.0,1.0,79,0.00,,,0.00,TxWx,2013-04-24 04:47:00,
2013-04-24 00:52:00,44.0,38.0,30.07,East,90,0.0,1.0,79,0.00,,,0.00,TxWx,2013-04-24 04:52:00,
2013-04-24 00:57:00,43.0,37.0,30.07,East,90,1.0,1.0,80,0.00,,,0.00,TxWx,2013-04-24 04:57:00,
2013-04-24 01:03:00,43.0,37.0,30.06,ESE,112,1.0,1.0,80,0.00,,,0.00,TxWx,2013-04-24 05:03:00,
2013-04-24 01:08:00,44.0,38.0,30.06,SE,135,1.0,1.0,81,0.00,,,0.00,TxWx,2013-04-24 05:08:00,
2013-04-24 01:13:00,44.0,38.0,30.06,SE,135,1.0,1.0,81,0.00,,,0.00,TxWx,2013-04-24 05:13:00,
2013-04-24 01:18:00,44.0,39.0,30.06,ESE,112,1.0,1.0,81,0.00,,,0.00,TxWx,2013-04-24 05:18:00,
2013-04-24 01:23:00,44.0,39.0,30.05,SSW,202,1.0,1.0,81,0.00,,,0.00,TxWx,2013-04-24 05:23:00,
2013-04-24 01:29:00,44.0,39.0,30.05,SW,225,1.0,2.0,82,0.00,,,0.00,TxWx,2013-04-24 05:29:00,
2013-04-24 01:34:00,44.0,39.0,30.05,WNW,292,1.0,1.0,82,0.00,,,0.00,TxWx,2013-04-24 05:34:00,
2013-04-24 01:39:00,45.0,40.0,30.04,SSE,157,1.0,2.0,82,0.00,,,0.00,TxWx,2013-04-24 05:39:00,
2013-04-24 01:44:00,45.0,40.0,30.04,NW,315,2.0,3.0,82,0.00,,,0.00,TxWx,2013-04-24 05:44:00,
2013-04-24 01:50:00,45.0,40.0,30.03,North,0,1.0,1.0,82,0.00,,,0.00,TxWx,2013-04-24 05:50:00,
2013-04-24 01:55:00,45.0,40.0,30.03,ENE,67,1.0,1.0,82,0.00,,,0.00,TxWx,2013-04-24 05:55:00,
2013-04-24 02:00:00,45.0,40.0,30.02,SE,135,3.0,3.0,82,0.00,,,0.00,TxWx,2013-04-24 06:00:00,
2013-04-24 02:05:00,45.0,40.0,30.02,West,270,1.0,1.0,83,0.00,,,0.00,TxWx,2013-04-24 06:05:00,
2013-04-24 02:11:00,44.0,39.0,30.03,ENE,67,2.0,3.0,83,0.00,,,0.00,TxWx,2013-04-24 06:11:00,
2013-04-24 02:16:00,44.0,39.0,30.03,NNW,337,1.0,1.0,82,0.00,,,0.00,TxWx,2013-04-24 06:16:00,
2013-04-24 02:21:00,44.0,39.0,30.03,North,0,2.0,3.0,83,0.00,,,0.00,TxWx,2013-04-24 06:21:00,
2013-04-24 02:26:00,44.0,39.0,30.03,North,0,1.0,1.0,83,0.00,,,0.00,TxWx,2013-04-24 06:26:00,
2013-04-24 02:31:00,44.0,39.0,30.03,West,270,1.0,1.0,83,0.00,,,0.00,TxWx,2013-04-24 06:31:00,
2013-04-24 02:37:00,44.0,39.0,30.03,NNW,337,1.0,1.0,83,0.00,,,0.00,TxWx,2013-04-24 06:37:00,
2013-04-24 02:42:00,44.0,39.0,30.03,WNW,292,1.0,1.0,83,0.00,,,0.00,TxWx,2013-04-24 06:42:00,
2013-04-24 02:47:00,44.0,39.0,30.02,WSW,247,2.0,2.0,83,0.00,,,0.00,TxWx,2013-04-24 06:47:00,
2013-04-24 02:53:00,44.0,39.0,30.02,ENE,67,1.0,1.0,83,0.00,,,0.00,TxWx,2013-04-24 06:53:00,
2013-04-24 02:58:00,43.0,38.0,30.02,NE,45,1.0,1.0,83,0.00,,,0.00,TxWx,2013-04-24 06:58:00,
2013-04-24 03:03:00,43.0,38.0,30.02,North,0,1.0,1.0,83,0.00,,,0.00,TxWx,2013-04-24 07:03:00,
2013-04-24 03:08:00,42.0,37.0,30.02,NW,315,1.0,1.0,83,0.00,,,0.00,TxWx,2013-04-24 07:08:00,
2013-04-24 03:13:00,42.0,37.0,30.02,NNW,337,1.0,1.0,83,0.00,,,0.00,TxWx,2013-04-24 07:13:00,
2013-04-24 03:18:00,42.0,37.0,30.01,SW,225,0.0,0.0,84,0.00,,,0.00,TxWx,2013-04-24 07:18:00,
2013-04-24 03:23:00,42.0,37.0,30.01,North,0,0.0,0.0,84,0.00,,,0.00,TxWx,2013-04-24 07:23:00,
2013-04-24 03:28:00,42.0,37.0,30.01,WNW,292,1.0,1.0,84,0.00,,,0.00,TxWx,2013-04-24 07:28:00,
2013-04-24 03:34:00,42.0,37.0,30.01,NNE,22,2.0,2.0,84,0.00,,,0.00,TxWx,2013-04-24 07:34:00,
2013-04-24 03:39:00,42.0,38.0,30.01,NW,315,1.0,1.0,84,0.00,,,0.00,TxWx,2013-04-24 07:39:00,
2013-04-24 03:44:00,42.0,38.0,30.01,North,0,0.0,0.0,84,0.00,,,0.00,TxWx,2013-04-24 07:44:00,
2013-04-24 03:49:00,42.0,38.0,30.00,NNE,22,1.0,1.0,84,0.00,,,0.00,TxWx,2013-04-24 07:49:00,
2013-04-24 03:55:00,41.0,37.0,30.00,NNW,337,0.0,1.0,84,0.00,,,0.00,TxWx,2013-04-24 07:55:00,
2013-04-24 04:00:00,41.0,37.0,30.00,NNE,22,0.0,0.0,84,0.00,,,0.00,TxWx,2013-04-24 08:00:00,
2013-04-24 04:05:00,41.0,37.0,30.00,NNE,22,1.0,1.0,84,0.00,,,0.00,TxWx,2013-04-24 08:05:00,
2013-04-24 04:10:00,41.0,37.0,30.00,NNE,22,1.0,1.0,85,0.00,,,0.00,TxWx,2013-04-24 08:10:00,
2013-04-24 04:15:00,40.0,36.0,30.00,NW,315,1.0,1.0,85,0.00,,,0.00,TxWx,2013-04-24 08:15:00,
2013-04-24 04:21:00,40.0,36.0,30.00,North,0,1.0,1.0,85,0.00,,,0.00,TxWx,2013-04-24 08:21:00,
2013-04-24 04:26:00,40.0,36.0,30.00,NW,315,1.0,1.0,85,0.00,,,0.00,TxWx,2013-04-24 08:26:00,
2013-04-24 04:31:00,40.0,36.0,30.00,NW,315,1.0,1.0,85,0.00,,,0.00,TxWx,2013-04-24 08:31:00,
2013-04-24 04:36:00,40.0,36.0,30.00,North,0,2.0,2.0,85,0.00,,,0.00,TxWx,2013-04-24 08:36:00,
2013-04-24 04:41:00,40.0,36.0,30.00,North,0,0.0,0.0,85,0.00,,,0.00,TxWx,2013-04-24 08:41:00,
2013-04-24 04:46:00,39.0,35.0,30.00,WNW,292,0.0,0.0,85,0.00,,,0.00,TxWx,2013-04-24 08:46:00,
2013-04-24 04:52:00,40.0,36.0,30.00,West,270,0.0,1.0,85,0.00,,,0.00,TxWx,2013-04-24 08:52:00,
2013-04-24 04:57:00,40.0,36.0,30.00,WNW,292,1.0,1.0,86,0.00,,,0.00,TxWx,2013-04-24 08:57:00,
2013-04-24 05:02:00,40.0,36.0,30.00,WNW,292,1.0,1.0,86,0.00,,,0.00,TxWx,2013-04-24 09:02:00,
2013-04-24 05:07:00,40.0,36.0,30.00,West,270,1.0,1.0,86,0.00,,,0.00,TxWx,2013-04-24 09:07:00,
2013-04-24 05:12:00,40.0,36.0,30.00,North,0,0.0,0.0,86,0.00,,,0.00,TxWx,2013-04-24 09:12:00,
2013-04-24 05:17:00,39.0,35.0,30.00,NNE,22,1.0,1.0,86,0.00,,,0.00,TxWx,2013-04-24 09:17:00,
2013-04-24 05:22:00,38.0,34.0,30.00,North,0,1.0,1.0,86,0.00,,,0.00,TxWx,2013-04-24 09:22:00,
2013-04-24 05:28:00,38.0,34.0,30.00,NNE,22,1.0,1.0,86,0.00,,,0.00,TxWx,2013-04-24 09:28:00,
2013-04-24 05:33:00,38.0,34.0,30.00,NNW,337,1.0,1.0,86,0.00,,,0.00,TxWx,2013-04-24 09:33:00,
2013-04-24 05:38:00,38.0,34.0,30.00,North,0,1.0,1.0,86,0.00,,,0.00,TxWx,2013-04-24 09:38:00,
2013-04-24 05:43:00,38.0,34.0,30.00,NNE,22,1.0,2.0,86,0.00,,,0.00,TxWx,2013-04-24 09:43:00,
2013-04-24 05:48:00,37.0,33.0,30.00,NNE,22,1.0,1.0,86,0.00,,,0.00,TxWx,2013-04-24 09:48:00,
2013-04-24 05:53:00,37.0,33.0,30.01,NNW,337,1.0,1.0,86,0.00,,,0.00,TxWx,2013-04-24 09:53:00,
2013-04-24 05:58:00,37.0,33.0,30.01,NNE,22,3.0,3.0,87,0.00,,,0.00,TxWx,2013-04-24 09:58:00,
2013-04-24 06:04:00,38.0,34.0,30.01,WNW,292,1.0,1.0,87,0.00,,,0.00,TxWx,2013-04-24 10:04:00,
2013-04-24 06:09:00,38.0,34.0,30.00,WNW,292,1.0,1.0,87,0.00,,,0.00,TxWx,2013-04-24 10:09:00,
2013-04-24 06:14:00,39.0,35.0,30.00,West,270,2.0,2.0,87,0.00,,,0.00,TxWx,2013-04-24 10:14:00,
2013-04-24 06:19:00,38.0,34.0,30.00,NNE,22,1.0,1.0,87,0.00,,,0.00,TxWx,2013-04-24 10:19:00,
2013-04-24 06:25:00,38.0,34.0,30.00,North,0,1.0,1.0,87,0.00,,,0.00,TxWx,2013-04-24 10:25:00,
2013-04-24 06:30:00,38.0,34.0,30.01,North,0,2.0,2.0,87,0.00,,,0.00,TxWx,2013-04-24 10:30:00,
2013-04-24 06:35:00,38.0,35.0,30.01,NNW,337,3.0,4.0,88,0.00,,,0.00,TxWx,2013-04-24 10:35:00,
2013-04-24 06:40:00,39.0,36.0,30.01,NW,315,3.0,3.0,88,0.00,,,0.00,TxWx,2013-04-24 10:40:00,
2013-04-24 06:45:00,40.0,37.0,30.01,NW,315,1.0,2.0,88,0.00,,,0.00,TxWx,2013-04-24 10:45:00,
2013-04-24 06:50:00,40.0,37.0,30.02,NNE,22,1.0,1.0,88,0.00,,,0.00,TxWx,2013-04-24 10:50:00,
2013-04-24 06:56:00,40.0,37.0,30.02,North,0,0.0,1.0,88,0.00,,,0.00,TxWx,2013-04-24 10:56:00,
2013-04-24 07:01:00,40.0,37.0,30.02,NNE,22,3.0,3.0,88,0.00,,,0.00,TxWx,2013-04-24 11:01:00,
2013-04-24 07:06:00,40.0,37.0,30.02,NNE,22,2.0,2.0,88,0.00,,,0.00,TxWx,2013-04-24 11:06:00,
2013-04-24 07:12:00,41.0,38.0,30.02,NNW,337,1.0,3.0,88,0.00,,,0.00,TxWx,2013-04-24 11:12:00,
2013-04-24 07:17:00,41.0,38.0,30.02,North,0,1.0,2.0,88,0.00,,,0.00,TxWx,2013-04-24 11:17:00,
2013-04-24 07:22:00,42.0,39.0,30.02,West,270,1.0,1.0,89,0.00,,,0.00,TxWx,2013-04-24 11:22:00,
2013-04-24 07:28:00,43.0,40.0,30.01,WSW,247,4.0,4.0,89,0.00,,,0.00,TxWx,2013-04-24 11:28:00,
2013-04-24 07:33:00,43.0,40.0,30.00,NNE,22,1.0,1.0,89,0.00,,,0.00,TxWx,2013-04-24 11:33:00,
2013-04-24 07:39:00,44.0,41.0,30.00,NW,315,1.0,1.0,89,0.00,,,0.00,TxWx,2013-04-24 11:39:00,
2013-04-24 07:44:00,45.0,42.0,30.00,NE,45,0.0,1.0,89,0.00,,,0.00,TxWx,2013-04-24 11:44:00,
2013-04-24 07:49:00,45.0,42.0,30.00,WSW,247,1.0,2.0,89,0.00,,,0.00,TxWx,2013-04-24 11:49:00,
2013-04-24 07:54:00,46.0,43.0,29.99,WSW,247,2.0,3.0,89,0.00,,,0.00,TxWx,2013-04-24 11:54:00,
2013-04-24 07:59:00,46.0,43.0,30.00,ENE,67,1.0,2.0,89,0.00,,,0.00,TxWx,2013-04-24 11:59:00,
2013-04-24 08:04:00,47.0,44.0,29.99,South,180,1.0,1.0,89,0.00,,,0.00,TxWx,2013-04-24 12:04:00,
2013-04-24 08:10:00,47.0,44.0,29.99,NNW,337,3.0,3.0,89,0.00,,,0.00,TxWx,2013-04-24 12:10:00,
2013-04-24 08:15:00,47.0,44.0,29.99,North,0,2.0,2.0,89,0.00,,,0.00,TxWx,2013-04-24 12:15:00,
2013-04-24 08:20:00,47.0,44.0,29.99,NNW,337,3.0,3.0,89,0.00,,,0.00,TxWx,2013-04-24 12:20:00,
2013-04-24 08:25:00,48.0,45.0,29.98,NNW,337,4.0,4.0,89,0.00,,,0.00,TxWx,2013-04-24 12:25:00,
2013-04-24 08:31:00,48.0,45.0,29.98,NNW,337,5.0,5.0,89,0.00,,,0.00,TxWx,2013-04-24 12:31:00,
2013-04-24 08:36:00,49.0,46.0,29.98,NNW,337,3.0,3.0,89,0.00,,,0.00,TxWx,2013-04-24 12:36:00,
2013-04-24 08:41:00,49.0,46.0,29.98,NW,315,5.0,5.0,89,0.00,,,0.00,TxWx,2013-04-24 12:41:00,
2013-04-24 08:46:00,49.0,46.0,29.98,North,0,4.0,4.0,89,0.00,,,0.00,TxWx,2013-04-24 12:46:00,
2013-04-24 08:51:00,50.0,47.0,29.98,WSW,247,3.0,5.0,89,0.00,,,0.00,TxWx,2013-04-24 12:51:00,
2013-04-24 08:56:00,50.0,47.0,29.98,NE,45,4.0,4.0,89,0.00,,,0.00,TxWx,2013-04-24 12:56:00,
2013-04-24 09:01:00,50.0,47.0,29.98,North,0,5.0,5.0,88,0.00,,,0.00,TxWx,2013-04-24 13:01:00,
2013-04-24 09:06:00,50.0,46.0,29.97,NNE,22,3.0,4.0,87,0.00,,,0.00,TxWx,2013-04-24 13:06:00,
2013-04-24 09:12:00,51.0,47.0,29.97,NNW,337,2.0,3.0,87,0.00,,,0.00,TxWx,2013-04-24 13:12:00,
2013-04-24 09:17:00,51.0,47.0,29.97,NW,315,4.0,5.0,86,0.00,,,0.00,TxWx,2013-04-24 13:17:00,
2013-04-24 09:22:00,51.0,46.0,29.97,North,0,3.0,3.0,85,0.00,,,0.00,TxWx,2013-04-24 13:22:00,
2013-04-24 09:27:00,52.0,47.0,29.97,NW,315,3.0,3.0,84,0.00,,,0.00,TxWx,2013-04-24 13:27:00,
2013-04-24 09:33:00,52.0,47.0,29.96,NE,45,2.0,3.0,83,0.00,,,0.00,TxWx,2013-04-24 13:33:00,
2013-04-24 09:38:00,52.0,47.0,29.96,South,180,1.0,1.0,82,0.00,,,0.00,TxWx,2013-04-24 13:38:00,
2013-04-24 09:43:00,54.0,48.0,29.96,NNE,22,5.0,5.0,80,0.00,,,0.00,TxWx,2013-04-24 13:43:00,
2013-04-24 09:48:00,54.0,47.0,29.95,NNE,22,3.0,4.0,78,0.00,,,0.00,TxWx,2013-04-24 13:48:00,
2013-04-24 09:53:00,54.0,47.0,29.95,NNW,337,7.0,7.0,77,0.00,,,0.00,TxWx,2013-04-24 13:53:00,
2013-04-24 09:59:00,54.0,46.0,29.95,NNW,337,1.0,1.0,76,0.00,,,0.00,TxWx,2013-04-24 13:59:00,
2013-04-24 10:04:00,54.0,46.0,29.95,NE,45,0.0,1.0,75,0.00,,,0.00,TxWx,2013-04-24 14:04:00,
2013-04-24 10:09:00,55.0,47.0,29.95,NW,315,1.0,3.0,74,0.00,,,0.00,TxWx,2013-04-24 14:09:00,
2013-04-24 10:14:00,56.0,47.0,29.94,WNW,292,4.0,4.0,73,0.00,,,0.00,TxWx,2013-04-24 14:14:00,
2013-04-24 10:19:00,56.0,47.0,29.94,WNW,292,3.0,3.0,71,0.00,,,0.00,TxWx,2013-04-24 14:19:00,
2013-04-24 10:24:00,56.0,46.0,29.94,SW,225,3.0,3.0,69,0.00,,,0.00,TxWx,2013-04-24 14:24:00,
2013-04-24 10:29:00,56.0,46.0,29.94,SW,225,3.0,3.0,68,0.00,,,0.00,TxWx,2013-04-24 14:29:00,
2013-04-24 10:35:00,57.0,47.0,29.93,NNW,337,3.0,4.0,68,0.00,,,0.00,TxWx,2013-04-24 14:35:00,
2013-04-24 10:40:00,57.0,46.0,29.94,NW,315,3.0,3.0,67,0.00,,,0.00,TxWx,2013-04-24 14:40:00,
2013-04-24 10:45:00,58.0,47.0,29.93,North,0,5.0,6.0,66,0.00,,,0.00,TxWx,2013-04-24 14:45:00,
2013-04-24 10:50:00,58.0,46.0,29.94,West,270,7.0,8.0,65,0.00,,,0.00,TxWx,2013-04-24 14:50:00,
2013-04-24 10:55:00,58.0,46.0,29.93,WNW,292,5.0,5.0,65,0.00,,,0.00,TxWx,2013-04-24 14:55:00,
2013-04-24 11:01:00,58.0,46.0,29.92,NNE,22,2.0,3.0,64,0.00,,,0.00,TxWx,2013-04-24 15:01:00,
2013-04-24 11:09:00,59.0,47.0,29.92,NNW,337,6.0,6.0,64,0.00,,,0.00,TxWx,2013-04-24 15:09:00,
2013-04-24 11:15:00,59.0,47.0,29.92,NNW,337,5.0,5.0,64,0.00,,,0.00,TxWx,2013-04-24 15:15:00,
2013-04-24 11:20:00,59.0,46.0,29.91,WSW,247,2.0,3.0,63,0.00,,,0.00,TxWx,2013-04-24 15:20:00,
2013-04-24 11:25:00,59.0,46.0,29.91,NNW,337,5.0,5.0,63,0.00,,,0.00,TxWx,2013-04-24 15:25:00,
2013-04-24 11:31:00,60.0,46.0,29.91,NNW,337,5.0,6.0,61,0.00,,,0.00,TxWx,2013-04-24 15:31:00,
2013-04-24 11:36:00,60.0,46.0,29.90,North,0,6.0,6.0,61,0.00,,,0.00,TxWx,2013-04-24 15:36:00,
2013-04-24 11:41:00,60.0,46.0,29.90,North,0,2.0,4.0,60,0.00,,,0.00,TxWx,2013-04-24 15:41:00,
2013-04-24 11:46:00,61.0,47.0,29.90,NW,315,6.0,8.0,60,0.00,,,0.00,TxWx,2013-04-24 15:46:00,
2013-04-24 11:52:00,61.0,47.0,29.89,WNW,292,5.0,6.0,60,0.00,,,0.00,TxWx,2013-04-24 15:52:00,
2013-04-24 11:57:00,61.0,47.0,29.89,NW,315,6.0,6.0,59,0.00,,,0.00,TxWx,2013-04-24 15:57:00,
2013-04-24 12:02:00,62.0,47.0,29.89,NNE,22,8.0,10.0,58,0.00,,,0.00,TxWx,2013-04-24 16:02:00,
2013-04-24 12:07:00,62.0,47.0,29.88,NE,45,8.0,8.0,57,0.00,,,0.00,TxWx,2013-04-24 16:07:00,
2013-04-24 12:13:00,61.0,46.0,29.88,WNW,292,3.0,4.0,58,0.00,,,0.00,TxWx,2013-04-24 16:13:00,
2013-04-24 12:18:00,62.0,47.0,29.87,North,0,3.0,5.0,58,0.00,,,0.00,TxWx,2013-04-24 16:18:00,
2013-04-24 12:24:00,63.0,48.0,29.87,North,0,5.0,6.0,58,0.00,,,0.00,TxWx,2013-04-24 16:24:00,
2013-04-24 12:29:00,64.0,48.0,29.86,North,0,5.0,6.0,56,0.00,,,0.00,TxWx,2013-04-24 16:29:00,
2013-04-24 12:34:00,64.0,47.0,29.85,WNW,292,5.0,7.0,54,0.00,,,0.00,TxWx,2013-04-24 16:34:00,
2013-04-24 12:40:00,65.0,47.0,29.85,NNE,22,6.0,8.0,53,0.00,,,0.00,TxWx,2013-04-24 16:40:00,
2013-04-24 12:45:00,65.0,47.0,29.84,West,270,4.0,5.0,52,0.00,,,0.00,TxWx,2013-04-24 16:45:00,
2013-04-24 12:50:00,66.0,47.0,29.83,WNW,292,6.0,6.0,51,0.00,,,0.00,TxWx,2013-04-24 16:50:00,
2013-04-24 12:56:00,66.0,47.0,29.83,North,0,6.0,10.0,50,0.00,,,0.00,TxWx,2013-04-24 16:56:00,
2013-04-24 13:01:00,66.0,47.0,29.83,NNW,337,8.0,12.0,50,0.00,,,0.00,TxWx,2013-04-24 17:01:00,
2013-04-24 13:06:00,67.0,48.0,29.82,NW,315,5.0,5.0,51,0.00,,,0.00,TxWx,2013-04-24 17:06:00,
2013-04-24 13:12:00,67.0,47.0,29.82,WNW,292,9.0,11.0,49,0.00,,,0.00,TxWx,2013-04-24 17:12:00,
2013-04-24 13:17:00,67.0,47.0,29.81,NNW,337,9.0,11.0,49,0.00,,,0.00,TxWx,2013-04-24 17:17:00,
2013-04-24 13:22:00,68.0,48.0,29.81,West,270,5.0,5.0,50,0.00,,,0.00,TxWx,2013-04-24 17:22:00,
2013-04-24 13:27:00,69.0,49.0,29.80,NW,315,8.0,8.0,49,0.00,,,0.00,TxWx,2013-04-24 17:27:00,
2013-04-24 13:33:00,69.0,48.0,29.80,WNW,292,6.0,10.0,47,0.00,,,0.00,TxWx,2013-04-24 17:33:00,
2013-04-24 13:38:00,70.0,48.0,29.80,WNW,292,11.0,15.0,46,0.00,,,0.00,TxWx,2013-04-24 17:38:00,
2013-04-24 13:43:00,70.0,49.0,29.80,NNW,337,5.0,8.0,47,0.00,,,0.00,TxWx,2013-04-24 17:43:00,
2013-04-24 13:48:00,71.0,49.0,29.80,NNW,337,8.0,9.0,46,0.00,,,0.00,TxWx,2013-04-24 17:48:00,
2013-04-24 13:53:00,71.0,49.0,29.80,NW,315,11.0,11.0,45,0.00,,,0.00,TxWx,2013-04-24 17:53:00,
2013-04-24 13:59:00,71.0,49.0,29.80,NW,315,10.0,11.0,46,0.00,,,0.00,TxWx,2013-04-24 17:59:00,
2013-04-24 14:04:00,70.0,48.0,29.79,NNW,337,11.0,11.0,45,0.00,,,0.00,TxWx,2013-04-24 18:04:00,
2013-04-24 14:09:00,71.0,49.0,29.79,NNW,337,8.0,13.0,45,0.00,,,0.00,TxWx,2013-04-24 18:09:00,
2013-04-24 14:14:00,71.0,49.0,29.79,NNW,337,11.0,11.0,46,0.00,,,0.00,TxWx,2013-04-24 18:14:00,
2013-04-24 14:20:00,71.0,49.0,29.79,North,0,8.0,9.0,45,0.00,,,0.00,TxWx,2013-04-24 18:20:00,
2013-04-24 14:25:00,71.0,49.0,29.78,WNW,292,6.0,8.0,45,0.00,,,0.00,TxWx,2013-04-24 18:25:00,
2013-04-24 14:30:00,72.0,49.0,29.78,NW,315,8.0,8.0,44,0.00,,,0.00,TxWx,2013-04-24 18:30:00,
2013-04-24 14:35:00,72.0,49.0,29.78,NW,315,6.0,6.0,44,0.00,,,0.00,TxWx,2013-04-24 18:35:00,
2013-04-24 14:40:00,72.0,49.0,29.77,NW,315,9.0,13.0,44,0.00,,,0.00,TxWx,2013-04-24 18:40:00,
2013-04-24 14:45:00,73.0,49.0,29.77,WNW,292,10.0,11.0,43,0.00,,,0.00,TxWx,2013-04-24 18:45:00,
2013-04-24 14:50:00,73.0,49.0,29.76,WSW,247,5.0,7.0,43,0.00,,,0.00,TxWx,2013-04-24 18:50:00,
2013-04-24 14:55:00,73.0,49.0,29.76,NNW,337,5.0,5.0,43,0.00,,,0.00,TxWx,2013-04-24 18:55:00,
2013-04-24 15:01:00,73.0,49.0,29.76,NNW,337,8.0,8.0,43,0.00,,,0.00,TxWx,2013-04-24 19:01:00,
2013-04-24 15:02:00,64.0,53.0,29.72,West,270,12.0,12.0,67,0.00,,,0.00,TxWx,2013-04-24 19:02:00,
2013-04-24 15:03:00,64.0,53.0,29.72,NW,315,9.0,11.0,67,0.00,,,0.00,TxWx,2013-04-24 19:03:00,
2013-04-24 15:04:00,64.0,53.0,29.72,WNW,292,6.0,10.0,67,0.00,,,0.00,TxWx,2013-04-24 19:04:00,
2013-04-24 15:05:00,64.0,53.0,29.72,WSW,247,5.0,8.0,67,0.00,,,0.00,TxWx,2013-04-24 19:05:00,
2013-04-24 15:06:00,73.0,48.0,29.76,NNW,337,10.0,10.0,42,0.00,,,0.00,TxWx,2013-04-24 19:06:00,
2013-04-24 15:07:00,64.0,53.0,29.72,NW,315,10.0,10.0,67,0.00,,,0.00,TxWx,2013-04-24 19:07:00,
2013-04-24 15:08:00,64.0,53.0,29.73,North,0,6.0,8.0,67,0.00,,,0.00,TxWx,2013-04-24 19:08:00,
2013-04-24 15:09:00,64.0,53.0,29.73,NW,315,5.0,7.0,67,0.00,,,0.00,TxWx,2013-04-24 19:09:00,
2013-04-24 15:10:00,64.0,53.0,29.73,NNW,337,6.0,7.0,67,0.00,,,0.00,TxWx,2013-04-24 19:10:00,
2013-04-24 15:11:00,74.0,50.0,29.75,NNW,337,6.0,10.0,43,0.00,,,0.00,TxWx,2013-04-24 19:11:00,
2013-04-24 15:12:00,64.0,53.0,29.73,NW,315,8.0,13.0,68,0.00,,,0.00,TxWx,2013-04-24 19:12:00,
2013-04-24 15:13:00,64.0,53.0,29.73,NNW,337,10.0,10.0,68,0.00,,,0.00,TxWx,2013-04-24 19:13:00,
2013-04-24 15:14:00,64.0,53.0,29.73,NW,315,6.0,6.0,68,0.00,,,0.00,TxWx,2013-04-24 19:14:00,
2013-04-24 15:15:00,64.0,53.0,29.73,NNW,337,6.0,6.0,68,0.00,,,0.00,TxWx,2013-04-24 19:15:00,
2013-04-24 15:16:00,74.0,49.0,29.75,North,0,15.0,15.0,41,0.00,,,0.00,TxWx,2013-04-24 19:16:00,
2013-04-24 15:17:00,64.0,53.0,29.73,WNW,292,7.0,9.0,68,0.00,,,0.00,TxWx,2013-04-24 19:17:00,
2013-04-24 15:18:00,64.0,53.0,29.73,NW,315,9.0,9.0,68,0.00,,,0.00,TxWx,2013-04-24 19:18:00,
2013-04-24 15:19:00,64.0,53.0,29.73,WNW,292,6.0,8.0,68,0.00,,,0.00,TxWx,2013-04-24 19:19:00,
2013-04-24 15:20:00,64.0,53.0,29.73,NNE,22,10.0,10.0,68,0.00,,,0.00,TxWx,2013-04-24 19:20:00,
2013-04-24 15:21:00,75.0,50.0,29.74,WNW,292,6.0,6.0,42,0.00,,,0.00,TxWx,2013-04-24 19:21:00,
2013-04-24 15:22:00,64.0,53.0,29.73,NW,315,5.0,5.0,68,0.00,,,0.00,TxWx,2013-04-24 19:22:00,
2013-04-24 15:23:00,64.0,53.0,29.73,WNW,292,6.0,6.0,68,0.00,,,0.00,TxWx,2013-04-24 19:23:00,
2013-04-24 15:24:00,64.0,53.0,29.73,NW,315,5.0,8.0,68,0.00,,,0.00,TxWx,2013-04-24 19:24:00,
2013-04-24 15:25:00,63.0,52.0,29.73,NNW,337,6.0,8.0,68,0.00,,,0.00,TxWx,2013-04-24 19:25:00,
2013-04-24 15:26:00,76.0,51.0,29.74,North,0,8.0,8.0,41,0.00,,,0.00,TxWx,2013-04-24 19:26:00,
2013-04-24 15:27:00,63.0,52.0,29.73,North,0,9.0,11.0,68,0.00,,,0.00,TxWx,2013-04-24 19:27:00,
2013-04-24 15:28:00,63.0,52.0,29.73,NW,315,6.0,8.0,68,0.00,,,0.00,TxWx,2013-04-24 19:28:00,
2013-04-24 15:29:00,63.0,52.0,29.73,NNW,337,10.0,10.0,68,0.00,,,0.00,TxWx,2013-04-24 19:29:00,
2013-04-24 15:30:00,63.0,52.0,29.73,NW,315,7.0,10.0,68,0.00,,,0.00,TxWx,2013-04-24 19:30:00,
2013-04-24 15:31:00,76.0,50.0,29.73,NNW,337,8.0,8.0,40,0.00,,,0.00,TxWx,2013-04-24 19:31:00,
2013-04-24 15:32:00,63.0,52.0,29.73,NNW,337,5.0,6.0,69,0.00,,,0.00,TxWx,2013-04-24 19:32:00,
2013-04-24 15:33:00,63.0,52.0,29.73,WNW,292,6.0,6.0,69,0.00,,,0.00,TxWx,2013-04-24 19:33:00,
2013-04-24 15:34:00,63.0,52.0,29.73,WNW,292,5.0,6.0,69,0.00,,,0.00,TxWx,2013-04-24 19:34:00,
2013-04-24 15:35:00,63.0,52.0,29.73,NW,315,6.0,6.0,69,0.00,,,0.00,TxWx,2013-04-24 19:35:00,
2013-04-24 15:36:00,76.0,50.0,29.73,WNW,292,18.0,19.0,40,0.00,,,0.00,TxWx,2013-04-24 19:36:00,
2013-04-24 15:37:00,63.0,52.0,29.73,WNW,292,5.0,6.0,69,0.00,,,0.00,TxWx,2013-04-24 19:37:00,
2013-04-24 15:38:00,63.0,52.0,29.73,North,0,6.0,6.0,69,0.00,,,0.00,TxWx,2013-04-24 19:38:00,
2013-04-24 15:39:00,63.0,52.0,29.73,NW,315,8.0,9.0,69,0.00,,,0.00,TxWx,2013-04-24 19:39:00,
2013-04-24 15:40:00,63.0,53.0,29.74,NNW,337,7.0,8.0,69,0.00,,,0.00,TxWx,2013-04-24 19:40:00,
2013-04-24 15:41:00,63.0,53.0,29.74,NW,315,8.0,9.0,69,0.00,,,0.00,TxWx,2013-04-24 19:41:00,
2013-04-24 15:42:00,76.0,50.0,29.73,NW,315,3.0,7.0,40,0.00,,,0.00,TxWx,2013-04-24 19:42:00,
2013-04-24 15:43:00,63.0,53.0,29.75,NE,45,8.0,8.0,69,0.00,,,0.00,TxWx,2013-04-24 19:43:00,
2013-04-24 15:44:00,63.0,53.0,29.76,NE,45,14.0,14.0,70,0.00,,,0.00,TxWx,2013-04-24 19:44:00,
2013-04-24 15:45:00,63.0,53.0,29.77,ENE,67,8.0,8.0,70,0.00,,,0.00,TxWx,2013-04-24 19:45:00,
2013-04-24 15:46:00,63.0,53.0,29.78,NNE,22,11.0,13.0,70,0.00,,,0.00,TxWx,2013-04-24 19:46:00,
2013-04-24 15:47:00,76.0,50.0,29.72,WNW,292,11.0,12.0,40,0.00,,,0.00,TxWx,2013-04-24 19:47:00,
2013-04-24 15:48:00,63.0,53.0,29.77,NW,315,8.0,8.0,71,0.00,,,0.01,TxWx,2013-04-24 19:48:00,
2013-04-24 15:49:00,63.0,53.0,29.77,NE,45,11.0,11.0,71,0.00,,,0.01,TxWx,2013-04-24 19:49:00,
2013-04-24 15:50:00,62.0,53.0,29.77,NNW,337,9.0,10.0,72,0.60,,,0.02,TxWx,2013-04-24 19:50:00,
2013-04-24 15:51:00,62.0,53.0,29.77,North,0,5.0,6.0,72,0.60,,,0.03,TxWx,2013-04-24 19:51:00,
2013-04-24 15:52:00,62.0,53.0,29.77,North,0,5.0,5.0,72,0.60,,,0.03,TxWx,2013-04-24 19:52:00,
2013-04-24 15:53:00,76.0,50.0,29.72,NW,315,10.0,12.0,40,0.00,,,0.00,TxWx,2013-04-24 19:53:00,
2013-04-24 15:58:00,77.0,51.0,29.72,WNW,292,9.0,9.0,40,0.00,,,0.00,TxWx,2013-04-24 19:58:00,
2013-04-24 15:59:00,61.0,53.0,29.78,NNE,22,5.0,5.0,75,0.60,,,0.05,TxWx,2013-04-24 19:59:00,
2013-04-24 16:01:00,61.0,53.0,29.78,NNW,337,5.0,5.0,75,0.60,,,0.06,TxWx,2013-04-24 20:01:00,
2013-04-24 16:02:00,61.0,53.0,29.78,North,0,5.0,6.0,75,0.60,,,0.06,TxWx,2013-04-24 20:02:00,
2013-04-24 16:03:00,77.0,50.0,29.72,NNW,337,12.0,15.0,39,0.00,,,0.00,TxWx,2013-04-24 20:03:00,
2013-04-24 16:04:00,61.0,53.0,29.78,NNE,22,7.0,8.0,76,0.60,,,0.06,TxWx,2013-04-24 20:04:00,
2013-04-24 16:08:00,77.0,50.0,29.72,WNW,292,5.0,6.0,40,0.00,,,0.00,TxWx,2013-04-24 20:08:00,
2013-04-24 16:13:00,77.0,50.0,29.72,NNW,337,10.0,12.0,39,0.00,,,0.00,TxWx,2013-04-24 20:13:00,
2013-04-24 16:16:00,60.0,53.0,29.79,NNW,337,2.0,3.0,78,0.60,,,0.08,TxWx,2013-04-24 20:16:00,
2013-04-24 16:18:00,78.0,51.0,29.72,NNW,337,6.0,6.0,39,0.00,,,0.00,TxWx,2013-04-24 20:18:00,
2013-04-24 16:23:00,78.0,51.0,29.72,WNW,292,7.0,10.0,39,0.00,,,0.00,TxWx,2013-04-24 20:23:00,
2013-04-24 16:28:00,78.0,50.0,29.72,NNW,337,10.0,10.0,38,0.00,,,0.00,TxWx,2013-04-24 20:28:00,
2013-04-24 16:33:00,77.0,50.0,29.71,WNW,292,8.0,11.0,39,0.00,,,0.00,TxWx,2013-04-24 20:33:00,
2013-04-24 16:39:00,77.0,50.0,29.71,West,270,11.0,12.0,39,0.00,,,0.00,TxWx,2013-04-24 20:39:00,
2013-04-24 16:44:00,77.0,50.0,29.70,NW,315,10.0,14.0,39,0.00,,,0.00,TxWx,2013-04-24 20:44:00,
2013-04-24 16:49:00,78.0,51.0,29.71,NW,315,5.0,8.0,39,0.00,,,0.00,TxWx,2013-04-24 20:49:00,
2013-04-24 16:55:00,78.0,51.0,29.72,NW,315,10.0,10.0,39,0.00,,,0.00,TxWx,2013-04-24 20:55:00,
2013-04-24 17:00:00,78.0,51.0,29.72,NNW,337,10.0,11.0,39,0.00,,,0.00,TxWx,2013-04-24 21:00:00,
2013-04-24 17:05:00,78.0,51.0,29.71,NW,315,6.0,6.0,39,0.00,,,0.00,TxWx,2013-04-24 21:05:00,
2013-04-24 17:10:00,78.0,50.0,29.71,NNW,337,11.0,13.0,37,0.00,,,0.00,TxWx,2013-04-24 21:10:00,
2013-04-24 17:15:00,78.0,50.0,29.71,NNW,337,8.0,8.0,38,0.00,,,0.00,TxWx,2013-04-24 21:15:00,
2013-04-24 17:20:00,78.0,50.0,29.71,North,0,10.0,13.0,38,0.00,,,0.00,TxWx,2013-04-24 21:20:00,
2013-04-24 17:26:00,78.0,50.0,29.71,NW,315,6.0,10.0,38,0.00,,,0.00,TxWx,2013-04-24 21:26:00,
2013-04-24 17:31:00,78.0,50.0,29.70,NNW,337,5.0,5.0,38,0.00,,,0.00,TxWx,2013-04-24 21:31:00,
2013-04-24 17:36:00,78.0,50.0,29.71,NNW,337,13.0,13.0,38,0.00,,,0.00,TxWx,2013-04-24 21:36:00,
2013-04-24 17:42:00,77.0,50.0,29.70,NW,315,10.0,13.0,39,0.00,,,0.00,TxWx,2013-04-24 21:42:00,
2013-04-24 17:47:00,77.0,50.0,29.70,NW,315,10.0,10.0,39,0.00,,,0.00,TxWx,2013-04-24 21:47:00,
2013-04-24 17:52:00,77.0,50.0,29.70,WNW,292,10.0,13.0,39,0.00,,,0.00,TxWx,2013-04-24 21:52:00,
2013-04-24 17:58:00,78.0,51.0,29.69,NW,315,6.0,8.0,39,0.00,,,0.00,TxWx,2013-04-24 21:58:00,
2013-04-24 18:03:00,78.0,51.0,29.69,NNW,337,11.0,11.0,39,0.00,,,0.00,TxWx,2013-04-24 22:03:00,
2013-04-24 18:08:00,77.0,50.0,29.69,NNW,337,8.0,11.0,39,0.00,,,0.00,TxWx,2013-04-24 22:08:00,
2013-04-24 18:13:00,77.0,50.0,29.69,NW,315,8.0,9.0,39,0.00,,,0.00,TxWx,2013-04-24 22:13:00,
2013-04-24 18:18:00,77.0,50.0,29.68,NW,315,6.0,8.0,40,0.00,,,0.00,TxWx,2013-04-24 22:18:00,
2013-04-24 18:24:00,77.0,51.0,29.68,WNW,292,4.0,6.0,40,0.00,,,0.00,TxWx,2013-04-24 22:24:00,
2013-04-24 18:29:00,76.0,50.0,29.68,NNW,337,5.0,6.0,41,0.00,,,0.00,TxWx,2013-04-24 22:29:00,
2013-04-24 18:34:00,76.0,50.0,29.68,WNW,292,5.0,6.0,41,0.00,,,0.00,TxWx,2013-04-24 22:34:00,
2013-04-24 18:40:00,76.0,50.0,29.68,NW,315,6.0,6.0,41,0.00,,,0.00,TxWx,2013-04-24 22:40:00,
2013-04-24 18:45:00,76.0,51.0,29.68,NW,315,9.0,11.0,41,0.00,,,0.00,TxWx,2013-04-24 22:45:00,
2013-04-24 18:50:00,76.0,51.0,29.68,NW,315,6.0,6.0,41,0.00,,,0.00,TxWx,2013-04-24 22:50:00,
2013-04-24 18:55:00,76.0,51.0,29.68,WNW,292,5.0,6.0,42,0.00,,,0.00,TxWx,2013-04-24 22:55:00,
2013-04-24 19:01:00,75.0,50.0,29.68,NW,315,7.0,10.0,42,0.00,,,0.00,TxWx,2013-04-24 23:01:00,
2013-04-24 19:06:00,75.0,50.0,29.68,WNW,292,5.0,8.0,42,0.00,,,0.00,TxWx,2013-04-24 23:06:00,
2013-04-24 19:11:00,75.0,51.0,29.68,WNW,292,7.0,8.0,43,0.00,,,0.00,TxWx,2013-04-24 23:11:00,
2013-04-24 19:16:00,74.0,50.0,29.67,NNW,337,7.0,8.0,43,0.00,,,0.00,TxWx,2013-04-24 23:16:00,
2013-04-24 19:21:00,74.0,50.0,29.68,WNW,292,6.0,7.0,44,0.00,,,0.00,TxWx,2013-04-24 23:21:00,
2013-04-24 19:26:00,74.0,51.0,29.68,NW,315,6.0,6.0,44,0.00,,,0.00,TxWx,2013-04-24 23:26:00,
2013-04-24 19:31:00,74.0,51.0,29.68,WNW,292,6.0,10.0,45,0.00,,,0.00,TxWx,2013-04-24 23:31:00,
2013-04-24 19:36:00,73.0,50.0,29.68,NW,315,10.0,13.0,45,0.00,,,0.00,TxWx,2013-04-24 23:36:00,
2013-04-24 19:42:00,73.0,51.0,29.68,NW,315,18.0,18.0,46,0.00,,,0.00,TxWx,2013-04-24 23:42:00,
2013-04-24 19:47:00,73.0,51.0,29.68,NW,315,11.0,11.0,46,0.00,,,0.00,TxWx,2013-04-24 23:47:00,
2013-04-24 19:52:00,72.0,50.0,29.69,WNW,292,13.0,14.0,47,0.00,,,0.00,TxWx,2013-04-24 23:52:00,
2013-04-24 19:57:00,72.0,51.0,29.70,NW,315,14.0,16.0,47,0.00,,,0.00,TxWx,2013-04-24 23:57:00,
2013-04-24 20:03:00,72.0,51.0,29.71,NNW,337,8.0,12.0,48,0.00,,,0.00,TxWx,2013-04-25 00:03:00,
2013-04-24 20:08:00,71.0,51.0,29.71,NNW,337,6.0,8.0,49,0.00,,,0.00,TxWx,2013-04-25 00:08:00,
2013-04-24 20:13:00,71.0,51.0,29.72,NW,315,11.0,13.0,49,0.00,,,0.00,TxWx,2013-04-25 00:13:00,
2013-04-24 20:18:00,71.0,51.0,29.72,NW,315,10.0,10.0,50,0.00,,,0.00,TxWx,2013-04-25 00:18:00,
2013-04-24 20:24:00,70.0,50.0,29.72,NNW,337,13.0,13.0,50,0.00,,,0.00,TxWx,2013-04-25 00:24:00,
2013-04-24 20:29:00,70.0,51.0,29.72,North,0,7.0,8.0,51,0.00,,,0.00,TxWx,2013-04-25 00:29:00,
2013-04-24 20:35:00,70.0,51.0,29.73,NNW,337,7.0,10.0,51,0.00,,,0.00,TxWx,2013-04-25 00:35:00,
2013-04-24 20:40:00,70.0,51.0,29.73,NW,315,5.0,8.0,52,0.00,,,0.00,TxWx,2013-04-25 00:40:00,
2013-04-24 20:45:00,70.0,52.0,29.73,NW,315,10.0,13.0,52,0.00,,,0.00,TxWx,2013-04-25 00:45:00,
2013-04-24 20:51:00,69.0,51.0,29.73,NNW,337,7.0,9.0,53,0.00,,,0.00,TxWx,2013-04-25 00:51:00,
2013-04-24 20:56:00,69.0,51.0,29.73,NNW,337,7.0,7.0,53,0.00,,,0.00,TxWx,2013-04-25 00:56:00,
2013-04-24 21:01:00,69.0,51.0,29.73,NW,315,7.0,8.0,53,0.00,,,0.00,TxWx,2013-04-25 01:01:00,
2013-04-24 21:06:00,69.0,51.0,29.73,NW,315,15.0,16.0,54,0.00,,,0.00,TxWx,2013-04-25 01:06:00,
2013-04-24 21:11:00,69.0,52.0,29.73,NW,315,9.0,13.0,54,0.00,,,0.00,TxWx,2013-04-25 01:11:00,
2013-04-24 21:17:00,68.0,51.0,29.73,NW,315,15.0,16.0,55,0.00,,,0.00,TxWx,2013-04-25 01:17:00,
2013-04-24 21:22:00,68.0,51.0,29.72,WNW,292,11.0,12.0,56,0.00,,,0.00,TxWx,2013-04-25 01:22:00,
2013-04-24 21:27:00,68.0,52.0,29.72,NNW,337,11.0,11.0,56,0.00,,,0.00,TxWx,2013-04-25 01:27:00,
2013-04-24 21:32:00,68.0,52.0,29.72,NW,315,5.0,7.0,57,0.00,,,0.00,TxWx,2013-04-25 01:32:00,
2013-04-24 21:38:00,67.0,51.0,29.73,NW,315,11.0,12.0,58,0.00,,,0.00,TxWx,2013-04-25 01:38:00,
2013-04-24 21:43:00,67.0,51.0,29.73,NW,315,5.0,6.0,58,0.00,,,0.00,TxWx,2013-04-25 01:43:00,
2013-04-24 21:48:00,67.0,52.0,29.74,NW,315,7.0,7.0,58,0.00,,,0.00,TxWx,2013-04-25 01:48:00,
2013-04-24 21:53:00,67.0,52.0,29.74,WNW,292,9.0,9.0,59,0.00,,,0.00,TxWx,2013-04-25 01:53:00,
2013-04-24 21:58:00,67.0,52.0,29.74,WNW,292,5.0,6.0,59,0.00,,,0.00,TxWx,2013-04-25 01:58:00,
2013-04-24 22:03:00,66.0,51.0,29.73,NW,315,6.0,9.0,60,0.00,,,0.00,TxWx,2013-04-25 02:03:00,
2013-04-24 22:08:00,66.0,52.0,29.73,NNW,337,8.0,9.0,60,0.00,,,0.00,TxWx,2013-04-25 02:08:00,
2013-04-24 22:13:00,66.0,52.0,29.73,WNW,292,4.0,5.0,61,0.00,,,0.00,TxWx,2013-04-25 02:13:00,
2013-04-24 22:19:00,66.0,52.0,29.73,NNW,337,9.0,10.0,61,0.00,,,0.00,TxWx,2013-04-25 02:19:00,
2013-04-24 22:24:00,66.0,52.0,29.73,North,0,5.0,6.0,62,0.00,,,0.00,TxWx,2013-04-25 02:24:00,
2013-04-24 22:29:00,66.0,52.0,29.73,NNW,337,7.0,9.0,62,0.00,,,0.00,TxWx,2013-04-25 02:29:00,
2013-04-24 22:34:00,66.0,53.0,29.73,NW,315,6.0,9.0,62,0.00,,,0.00,TxWx,2013-04-25 02:34:00,
2013-04-24 22:39:00,65.0,52.0,29.73,NW,315,8.0,8.0,63,0.00,,,0.00,TxWx,2013-04-25 02:39:00,
2013-04-24 22:44:00,65.0,52.0,29.73,NW,315,10.0,13.0,63,0.00,,,0.00,TxWx,2013-04-25 02:44:00,
2013-04-24 22:49:00,65.0,52.0,29.72,SW,225,7.0,11.0,63,0.00,,,0.00,TxWx,2013-04-25 02:49:00,
2013-04-24 22:54:00,65.0,52.0,29.71,NW,315,8.0,8.0,63,0.00,,,0.00,TxWx,2013-04-25 02:54:00,
2013-04-24 23:00:00,65.0,52.0,29.72,NW,315,5.0,5.0,64,0.00,,,0.00,TxWx,2013-04-25 03:00:00,
2013-04-24 23:05:00,65.0,52.0,29.72,NNW,337,8.0,10.0,64,0.00,,,0.00,TxWx,2013-04-25 03:05:00,
2013-04-24 23:11:00,65.0,52.0,29.72,NNW,337,10.0,11.0,64,0.00,,,0.00,TxWx,2013-04-25 03:11:00,
2013-04-24 23:16:00,65.0,53.0,29.72,NW,315,8.0,8.0,65,0.00,,,0.00,TxWx,2013-04-25 03:16:00,
2013-04-24 23:21:00,65.0,53.0,29.71,WNW,292,5.0,6.0,65,0.00,,,0.00,TxWx,2013-04-25 03:21:00,
2013-04-24 23:26:00,65.0,53.0,29.71,WNW,292,9.0,12.0,65,0.00,,,0.00,TxWx,2013-04-25 03:26:00,
2013-04-24 23:31:00,65.0,53.0,29.71,NW,315,8.0,10.0,66,0.00,,,0.00,TxWx,2013-04-25 03:31:00,
2013-04-24 23:37:00,65.0,53.0,29.72,North,0,5.0,8.0,66,0.00,,,0.00,TxWx,2013-04-25 03:37:00,
2013-04-24 23:42:00,64.0,52.0,29.72,WNW,292,6.0,7.0,66,0.00,,,0.00,TxWx,2013-04-25 03:42:00,
2013-04-24 23:47:00,64.0,52.0,29.72,NW,315,4.0,6.0,66,0.00,,,0.00,TxWx,2013-04-25 03:47:00,
2013-04-24 23:52:00,64.0,53.0,29.72,NNW,337,8.0,9.0,67,0.00,,,0.00,TxWx,2013-04-25 03:52:00,
2013-04-24 23:57:00,64.0,53.0,29.72,NNW,337,5.0,5.0,67,0.00,,,0.00,TxWx,2013-04-25 03:57:00,